createdAt,value
2023-03-05T00:00:10.621Z,97.59
2023-03-05T00:02:13.894Z,97.63
2023-03-05T00:04:16.645Z,97.79
2023-03-05T00:06:19.430Z,97.49
2023-03-05T00:08:22.067Z,97.58
2023-03-05T00:10:24.705Z,98.17
2023-03-05T00:12:27.391Z,97.91
2023-03-05T00:14:30.120Z,97.95
2023-03-05T00:16:34.700Z,97.52
2023-03-05T00:18:38.380Z,97.42
2023-03-05T00:20:41.013Z,97.73
2023-03-05T00:22:43.804Z,97.71
2023-03-05T00:24:46.529Z,97.27
2023-03-05T00:26:49.707Z,97.80
2023-03-05T00:28:52.737Z,97.69
2023-03-05T00:30:55.594Z,97.63
2023-03-05T00:32:59.760Z,97.29
2023-03-05T00:35:02.421Z,97.38
2023-03-05T00:37:05.178Z,96.73
2023-03-05T00:39:07.973Z,97.50
2023-03-05T00:41:10.662Z,96.77
2023-03-05T00:43:13.363Z,97.58
2023-03-05T00:45:16.071Z,97.26
2023-03-05T00:47:19.230Z,97.90
2023-03-05T00:49:23.219Z,98.11
2023-03-05T00:51:26.252Z,98.61
2023-03-05T00:53:28.898Z,98.43
2023-03-05T00:55:31.546Z,99.07
2023-03-05T00:57:35.248Z,99.57
2023-03-05T00:59:38.037Z,100.00
2023-03-05T01:01:41.391Z,99.29
2023-03-05T01:03:44.223Z,100.00
2023-03-05T01:05:48.232Z,100.00
2023-03-05T01:07:53.549Z,100.00
2023-03-05T01:09:56.224Z,100.00
2023-03-05T01:12:00.002Z,100.00
2023-03-05T01:14:02.792Z,100.00
2023-03-05T01:16:06.351Z,100.00
2023-03-05T01:18:09.102Z,100.00
2023-03-05T01:20:14.950Z,100.00
2023-03-05T01:22:18.973Z,100.00
2023-03-05T01:24:21.739Z,100.00
2023-03-05T01:26:24.366Z,100.00
2023-03-05T01:28:27.912Z,100.00
2023-03-05T01:30:30.653Z,100.00
2023-03-05T01:32:34.766Z,100.00
2023-03-05T01:34:38.792Z,100.00
2023-03-05T01:36:42.094Z,100.00
2023-03-05T01:38:48.300Z,100.00
2023-03-05T01:40:50.935Z,100.00
2023-03-05T01:42:59.480Z,100.00
2023-03-05T01:45:07.389Z,100.00
2023-03-05T01:47:10.078Z,100.00
2023-03-05T01:49:18.656Z,100.00
2023-03-05T01:51:25.736Z,100.00
2023-03-05T01:53:28.604Z,100.00
2023-03-05T01:55:34.419Z,100.00
2023-03-05T01:57:41.005Z,100.00
2023-03-05T01:59:46.324Z,100.00
2023-03-05T02:01:52.874Z,100.00
2023-03-05T02:03:55.708Z,100.00
2023-03-05T02:05:58.374Z,100.00
2023-03-05T02:08:02.231Z,100.00
2023-03-05T02:10:16.474Z,100.00
2023-03-05T02:12:20.948Z,100.00
2023-03-05T02:14:24.393Z,100.00
2023-03-05T02:16:27.238Z,100.00
2023-03-05T02:18:29.993Z,100.00
2023-03-05T02:20:45.400Z,100.00
2023-03-05T02:22:49.349Z,100.00
2023-03-05T02:24:52.335Z,100.00
2023-03-05T02:26:55.242Z,100.00
2023-03-05T02:29:00.828Z,100.00
2023-03-05T02:31:03.536Z,100.00
2023-03-05T02:33:06.493Z,100.00
2023-03-05T02:35:09.882Z,100.00
2023-03-05T02:37:12.785Z,100.00
2023-03-05T02:39:16.812Z,100.00
2023-03-05T02:41:19.857Z,100.00
2023-03-05T02:43:22.523Z,100.00
2023-03-05T02:45:25.224Z,100.00
2023-03-05T02:47:28.229Z,100.00
2023-03-05T02:49:31.117Z,100.00
2023-03-05T02:51:33.771Z,100.00
2023-03-05T02:53:36.927Z,100.00
2023-03-05T02:55:40.896Z,100.00
2023-03-05T02:57:43.583Z,100.00
2023-03-05T02:59:47.010Z,100.00
2023-03-05T03:01:49.719Z,100.00
2023-03-05T03:03:52.476Z,100.00
2023-03-05T03:05:55.083Z,100.00
2023-03-05T03:07:57.812Z,100.00
2023-03-05T03:10:00.444Z,100.00
2023-03-05T03:12:04.871Z,100.00
2023-03-05T03:14:07.529Z,100.00
2023-03-05T03:16:12.533Z,100.00
2023-03-05T03:18:15.233Z,100.00
2023-03-05T03:20:19.990Z,100.00
2023-03-05T03:22:22.685Z,100.00
2023-03-05T03:24:25.407Z,100.00
2023-03-05T03:26:28.264Z,100.00
2023-03-05T03:28:32.242Z,100.00
2023-03-05T03:30:34.939Z,100.00
2023-03-05T03:32:37.578Z,100.00
2023-03-05T03:34:40.315Z,100.00
2023-03-05T03:36:43.587Z,100.00
2023-03-05T03:38:46.296Z,100.00
2023-03-05T03:40:48.877Z,100.00
2023-03-05T03:42:52.781Z,100.00
2023-03-05T03:44:57.034Z,100.00
2023-03-05T03:46:59.656Z,100.00
2023-03-05T03:49:02.297Z,100.00
2023-03-05T03:51:07.117Z,100.00
2023-03-05T03:53:14.040Z,100.00
2023-03-05T03:55:16.561Z,100.00
2023-03-05T03:57:19.223Z,100.00
2023-03-05T03:59:21.859Z,100.00
2023-03-05T04:01:25.917Z,100.00
2023-03-05T04:03:28.545Z,100.00
2023-03-05T04:05:31.348Z,100.00
2023-03-05T04:07:33.993Z,100.00
2023-03-05T04:09:36.614Z,100.00
2023-03-05T04:11:39.594Z,100.00
2023-03-05T04:13:42.359Z,100.00
2023-03-05T04:15:45.490Z,100.00
2023-03-05T04:17:49.552Z,100.00
2023-03-05T04:19:52.206Z,100.00
2023-03-05T04:21:54.835Z,100.00
2023-03-05T04:23:57.601Z,100.00
2023-03-05T04:26:00.308Z,100.00
2023-03-05T04:28:02.974Z,100.00
2023-03-05T04:30:06.738Z,100.00
2023-03-05T04:32:09.504Z,100.00
2023-03-05T04:34:13.542Z,100.00
2023-03-05T04:36:16.228Z,100.00
2023-03-05T04:38:18.838Z,100.00
2023-03-05T04:40:21.957Z,100.00
2023-03-05T04:42:24.890Z,100.00
2023-03-05T04:44:27.511Z,100.00
2023-03-05T04:46:30.159Z,100.00
2023-03-05T04:48:32.857Z,100.00
2023-03-05T04:50:36.782Z,100.00
2023-03-05T04:52:40.964Z,100.00
2023-03-05T04:54:45.227Z,100.00
2023-03-05T04:56:47.903Z,100.00
2023-03-05T04:58:50.533Z,100.00
2023-03-05T05:00:53.137Z,100.00
2023-03-05T05:02:55.949Z,100.00
2023-03-05T05:04:58.530Z,100.00
2023-03-05T05:07:02.769Z,100.00
2023-03-05T05:09:05.484Z,100.00
2023-03-05T05:11:09.290Z,100.00
2023-03-05T05:13:11.921Z,100.00
2023-03-05T05:15:15.035Z,100.00
2023-03-05T05:17:17.662Z,100.00
2023-03-05T05:19:21.599Z,100.00
2023-03-05T05:21:25.832Z,100.00
2023-03-05T05:23:29.856Z,100.00
2023-03-05T05:25:32.513Z,100.00
2023-03-05T05:27:35.162Z,100.00
2023-03-05T05:29:37.791Z,100.00
2023-03-05T05:31:40.469Z,100.00
2023-03-05T05:33:42.248Z,100.00
2023-03-05T05:35:44.861Z,100.00
2023-03-05T05:37:47.481Z,100.00
2023-03-05T05:39:51.445Z,100.00
2023-03-05T05:41:54.569Z,100.00
2023-03-05T05:43:57.214Z,100.00
2023-03-05T05:46:01.419Z,100.00
2023-03-05T05:48:04.249Z,100.00
2023-03-05T05:50:07.788Z,100.00
2023-03-05T05:52:10.785Z,100.00
2023-03-05T05:54:14.622Z,100.00
2023-03-05T05:56:19.540Z,100.00
2023-03-05T05:58:22.180Z,100.00
2023-03-05T06:00:25.214Z,100.00
2023-03-05T06:02:28.055Z,100.00
2023-03-05T06:04:30.812Z,100.00
2023-03-05T06:06:34.992Z,100.00
2023-03-05T06:08:37.633Z,100.00
2023-03-05T06:10:40.301Z,100.00
2023-03-05T06:12:44.289Z,100.00
2023-03-05T06:14:46.938Z,100.00
2023-03-05T06:16:49.685Z,100.00
2023-03-05T06:18:52.774Z,100.00
2023-03-05T06:20:56.258Z,100.00
2023-03-05T06:22:58.797Z,100.00
2023-03-05T06:25:01.567Z,100.00
2023-03-05T06:27:04.762Z,100.00
2023-03-05T06:29:08.702Z,100.00
2023-03-05T06:31:13.862Z,100.00
2023-03-05T06:33:16.604Z,100.00
2023-03-05T06:35:19.921Z,100.00
2023-03-05T06:37:22.651Z,100.00
2023-03-05T06:39:25.212Z,100.00
2023-03-05T06:41:29.693Z,100.00
2023-03-05T06:43:33.382Z,100.00
2023-03-05T06:45:37.386Z,100.00
2023-03-05T06:47:40.089Z,100.00
2023-03-05T06:49:42.684Z,100.00
2023-03-05T06:51:45.364Z,100.00
2023-03-05T06:53:49.620Z,100.00
2023-03-05T06:55:52.518Z,100.00
2023-03-05T06:57:55.189Z,100.00
2023-03-05T06:59:58.118Z,100.00
2023-03-05T07:02:02.185Z,100.00
2023-03-05T07:04:06.722Z,100.00
2023-03-05T07:06:11.479Z,100.00
2023-03-05T07:08:14.077Z,100.00
2023-03-05T07:10:16.744Z,100.00
2023-03-05T07:12:19.376Z,100.00
2023-03-05T07:14:23.237Z,100.00
2023-03-05T07:16:28.997Z,100.00
2023-03-05T07:18:32.969Z,100.00
2023-03-05T07:20:36.149Z,100.00
2023-03-05T07:22:39.125Z,100.00
2023-03-05T07:24:41.823Z,100.00
2023-03-05T07:26:44.471Z,100.00
2023-03-05T07:28:47.784Z,100.00
2023-03-05T07:30:57.037Z,100.00
2023-03-05T07:32:59.646Z,100.00
2023-03-05T07:35:03.797Z,100.00
2023-03-05T07:37:06.600Z,100.00
2023-03-05T07:39:09.556Z,100.00
2023-03-05T07:41:14.255Z,100.00
2023-03-05T07:43:17.530Z,100.00
2023-03-05T07:45:20.189Z,100.00
2023-03-05T07:47:23.257Z,100.00
2023-03-05T07:49:25.867Z,100.00
2023-03-05T07:51:30.102Z,100.00
2023-03-05T07:53:32.884Z,100.00
2023-03-05T07:55:35.981Z,100.00
2023-03-05T07:57:39.036Z,100.00
2023-03-05T07:59:43.040Z,100.00
2023-03-05T08:01:46.338Z,100.00
2023-03-05T08:03:49.022Z,100.00
2023-03-05T08:05:51.692Z,100.00
2023-03-05T08:07:55.685Z,100.00
2023-03-05T08:09:58.323Z,100.00
2023-03-05T08:12:00.960Z,100.00
2023-03-05T08:14:04.509Z,100.00
2023-03-05T08:16:08.552Z,100.00
2023-03-05T08:18:11.238Z,100.00
2023-03-05T08:20:14.516Z,99.56
2023-03-05T08:22:20.360Z,99.72
2023-03-05T08:24:29.351Z,100.00
2023-03-05T08:26:34.174Z,100.00
2023-03-05T08:28:36.790Z,100.00
2023-03-05T08:30:41.759Z,99.65
2023-03-05T08:32:44.455Z,99.85
2023-03-05T08:34:47.844Z,99.34
2023-03-05T08:36:50.582Z,100.00
2023-03-05T08:38:53.975Z,99.02
2023-03-05T08:40:57.948Z,98.94
2023-03-05T08:43:00.951Z,98.66
2023-03-05T08:45:03.625Z,99.00
2023-03-05T08:47:06.440Z,98.53
2023-03-05T08:49:09.065Z,98.36
2023-03-05T08:51:14.397Z,97.20
2023-03-05T08:53:17.079Z,96.66
2023-03-05T08:55:19.901Z,97.40
2023-03-05T08:57:23.799Z,96.50
2023-03-05T08:59:26.414Z,96.95
2023-03-05T09:01:30.531Z,96.83
2023-03-05T09:03:33.325Z,94.73
2023-03-05T09:05:39.027Z,94.68
2023-03-05T09:07:41.821Z,92.24
2023-03-05T09:09:44.451Z,92.40
2023-03-05T09:11:47.047Z,92.13
2023-03-05T09:13:51.054Z,92.79
2023-03-05T09:15:57.244Z,92.29
2023-03-05T09:18:00.053Z,91.56
2023-03-05T09:20:02.966Z,89.43
2023-03-05T09:22:05.775Z,89.03
2023-03-05T09:24:09.023Z,87.01
2023-03-05T09:26:13.303Z,88.06
2023-03-05T09:28:16.157Z,88.14
2023-03-05T09:30:20.699Z,88.45
2023-03-05T09:32:23.285Z,88.67
2023-03-05T09:34:26.002Z,88.54
2023-03-05T09:36:30.753Z,88.10
2023-03-05T09:38:33.744Z,90.50
2023-03-05T09:40:44.784Z,90.59
2023-03-05T09:43:02.330Z,89.03
2023-03-05T09:45:18.952Z,88.27
2023-03-05T09:47:38.784Z,88.79
2023-03-05T09:49:51.825Z,87.90
2023-03-05T09:52:01.302Z,88.65
2023-03-05T09:54:07.433Z,88.31
2023-03-05T09:56:13.383Z,85.44
2023-03-05T09:58:19.572Z,84.62
2023-03-05T10:00:31.319Z,86.96
2023-03-05T10:02:37.807Z,88.02
2023-03-05T10:04:46.484Z,85.74
2023-03-05T10:06:53.981Z,86.63
2023-03-05T10:08:58.718Z,85.98
2023-03-05T10:11:07.449Z,85.92
2023-03-05T10:13:17.615Z,85.38
2023-03-05T10:15:26.686Z,86.26
2023-03-05T10:17:59.838Z,86.70
2023-03-05T10:20:23.640Z,84.91
2023-03-05T10:22:30.297Z,85.45
2023-03-05T10:24:49.251Z,85.29
2023-03-05T10:27:00.417Z,85.04
2023-03-05T10:29:17.429Z,85.44
2023-03-05T10:31:38.061Z,85.57
2023-03-05T10:33:52.326Z,85.61
2023-03-05T10:36:26.608Z,85.43
2023-03-05T10:38:52.131Z,85.16
2023-03-05T10:40:56.610Z,85.43
2023-03-05T10:43:07.022Z,86.24
2023-03-05T10:45:16.694Z,86.66
2023-03-05T10:47:25.263Z,86.37
2023-03-05T10:49:31.717Z,88.17
2023-03-05T10:51:39.166Z,86.67
2023-03-05T10:53:51.740Z,87.32
2023-03-05T10:55:56.434Z,85.15
2023-03-05T10:57:59.163Z,86.47
2023-03-05T11:00:17.547Z,87.80
2023-03-05T11:02:22.311Z,86.75
2023-03-05T11:04:32.145Z,86.06
2023-03-05T11:06:39.681Z,87.22
2023-03-05T11:08:43.101Z,86.98
2023-03-05T11:10:45.740Z,87.45
2023-03-05T11:12:48.382Z,86.01
2023-03-05T11:15:05.483Z,85.22
2023-03-05T11:17:31.218Z,84.56
2023-03-05T11:19:35.352Z,84.59
2023-03-05T11:21:38.045Z,84.88
2023-03-05T11:23:40.609Z,84.51
2023-03-05T11:25:54.328Z,83.95
2023-03-05T11:27:59.013Z,83.26
2023-03-05T11:30:01.922Z,83.51
2023-03-05T11:32:17.819Z,83.35
2023-03-05T11:34:30.200Z,83.39
2023-03-05T11:36:35.853Z,83.39
2023-03-05T11:38:48.013Z,84.73
2023-03-05T11:40:51.067Z,85.31
2023-03-05T11:42:57.013Z,85.55
2023-03-05T11:45:00.882Z,86.23
2023-03-05T11:47:08.138Z,86.96
2023-03-05T11:49:16.660Z,86.06
2023-03-05T11:51:24.205Z,86.46
2023-03-05T11:53:29.593Z,87.54
2023-03-05T11:55:37.386Z,88.93
2023-03-05T11:57:47.199Z,90.67
2023-03-05T11:59:51.216Z,91.27
2023-03-05T12:01:56.328Z,91.96
2023-03-05T12:04:00.165Z,92.83
2023-03-05T12:06:10.918Z,92.06
2023-03-05T12:08:16.535Z,92.18
2023-03-05T12:10:23.788Z,91.50
2023-03-05T12:12:38.050Z,91.77
2023-03-05T12:14:49.342Z,92.87
2023-03-05T12:16:59.372Z,93.31
2023-03-05T12:19:21.126Z,92.38
2023-03-05T12:21:32.885Z,92.04
2023-03-05T12:23:50.271Z,92.70
2023-03-05T12:25:57.001Z,91.21
2023-03-05T12:28:00.104Z,90.41
2023-03-05T12:30:04.085Z,88.69
2023-03-05T12:32:28.806Z,88.84
2023-03-05T12:34:52.231Z,88.23
2023-03-05T12:36:55.009Z,88.42
2023-03-05T12:38:58.542Z,88.98
2023-03-05T12:41:44.295Z,88.58
2023-03-05T12:44:25.909Z,88.10
2023-03-05T12:46:30.088Z,87.46
2023-03-05T12:48:50.521Z,86.30
2023-03-05T12:50:59.467Z,85.91
2023-03-05T12:53:13.742Z,85.35
2023-03-05T12:55:20.207Z,84.00
2023-03-05T12:57:26.455Z,84.10
2023-03-05T12:59:44.066Z,83.64
2023-03-05T13:01:53.448Z,83.10
2023-03-05T13:03:59.593Z,82.63
2023-03-05T13:06:04.859Z,82.82
2023-03-05T13:08:15.865Z,82.15
2023-03-05T13:10:23.829Z,82.81
2023-03-05T13:12:28.555Z,82.73
2023-03-05T13:14:36.290Z,82.08
2023-03-05T13:16:41.027Z,81.49
2023-03-05T13:18:49.183Z,82.63
2023-03-05T13:21:02.410Z,82.29
2023-03-05T13:23:26.767Z,81.83
2023-03-05T13:25:29.635Z,82.37
2023-03-05T13:27:34.025Z,82.23
2023-03-05T13:29:36.636Z,81.84
2023-03-05T13:31:43.499Z,82.41
2023-03-05T13:33:54.207Z,82.63
2023-03-05T13:35:57.286Z,82.69
2023-03-05T13:38:00.832Z,82.45
2023-03-05T13:40:16.081Z,82.98
2023-03-05T13:42:20.862Z,83.50
2023-03-05T13:44:23.472Z,82.97
2023-03-05T13:46:28.460Z,82.58
2023-03-05T13:48:31.110Z,82.85
2023-03-05T13:50:37.375Z,83.15
2023-03-05T13:52:40.209Z,82.43
2023-03-05T13:54:43.396Z,83.37
2023-03-05T13:56:54.775Z,82.45
2023-03-05T13:58:57.981Z,81.79
2023-03-05T14:01:05.342Z,81.24
2023-03-05T14:03:12.336Z,81.56
2023-03-05T14:05:16.514Z,81.86
2023-03-05T14:07:30.806Z,81.28
2023-03-05T14:09:46.847Z,80.73
2023-03-05T14:11:57.957Z,81.30
2023-03-05T14:14:07.063Z,83.49
2023-03-05T14:16:12.006Z,83.45
2023-03-05T14:18:20.518Z,82.96
2023-03-05T14:20:27.352Z,82.63
2023-03-05T14:22:32.580Z,81.24
2023-03-05T14:24:35.299Z,81.38
2023-03-05T14:26:42.098Z,82.46
2023-03-05T14:28:44.862Z,81.45
2023-03-05T14:30:48.378Z,81.63
2023-03-05T14:32:52.717Z,81.17
2023-03-05T14:34:58.257Z,81.84
2023-03-05T14:37:04.519Z,81.63
2023-03-05T14:39:08.858Z,81.09
2023-03-05T14:41:23.739Z,81.04
2023-03-05T14:43:26.388Z,82.38
2023-03-05T14:45:31.095Z,81.93
2023-03-05T14:47:33.781Z,82.10
2023-03-05T14:49:36.468Z,81.96
2023-03-05T14:51:41.763Z,83.28
2023-03-05T14:53:47.580Z,82.62
2023-03-05T14:55:56.585Z,82.57
2023-03-05T14:58:04.195Z,84.25
2023-03-05T15:00:11.933Z,85.35
2023-03-05T15:02:18.806Z,85.65
2023-03-05T15:04:21.458Z,84.88
2023-03-05T15:06:31.720Z,85.53
2023-03-05T15:08:34.622Z,85.48
2023-03-05T15:10:37.264Z,85.15
2023-03-05T15:12:41.766Z,86.00
2023-03-05T15:14:44.839Z,85.92
2023-03-05T15:16:48.742Z,86.49
2023-03-05T15:18:51.437Z,86.93
2023-03-05T15:20:54.759Z,87.41
2023-03-05T15:22:57.420Z,88.03
2023-03-05T15:25:00.019Z,87.60
2023-03-05T15:27:03.162Z,87.89
2023-03-05T15:29:07.181Z,89.84
2023-03-05T15:31:10.064Z,90.25
2023-03-05T15:33:15.682Z,90.27
2023-03-05T15:35:18.663Z,89.67
2023-03-05T15:37:21.346Z,89.50
2023-03-05T15:39:26.262Z,89.54
2023-03-05T15:41:28.961Z,90.17
2023-03-05T15:43:31.644Z,90.02
2023-03-05T15:45:35.657Z,89.76
2023-03-05T15:47:38.343Z,89.51
2023-03-05T15:49:40.897Z,89.39
2023-03-05T15:51:43.498Z,89.01
2023-03-05T15:53:46.449Z,88.30
2023-03-05T15:55:49.069Z,87.03
2023-03-05T15:57:53.692Z,86.75
2023-03-05T15:59:56.395Z,87.49
2023-03-05T16:02:01.716Z,87.73
2023-03-05T16:04:04.542Z,87.34
2023-03-05T16:06:08.271Z,86.29
2023-03-05T16:08:10.958Z,87.27
2023-03-05T16:10:17.562Z,86.75
2023-03-05T16:12:23.853Z,85.92
2023-03-05T16:14:28.685Z,86.04
2023-03-05T16:16:32.454Z,85.48
2023-03-05T16:18:39.750Z,83.74
2023-03-05T16:20:42.636Z,84.09
2023-03-05T16:22:46.341Z,83.76
2023-03-05T16:24:48.944Z,85.06
2023-03-05T16:26:51.556Z,83.82
2023-03-05T16:28:54.496Z,83.76
2023-03-05T16:30:59.206Z,83.50
2023-03-05T16:33:01.871Z,82.51
2023-03-05T16:35:07.036Z,81.42
2023-03-05T16:37:09.677Z,80.97
2023-03-05T16:39:12.373Z,80.83
2023-03-05T16:41:15.826Z,80.76
2023-03-05T16:43:18.488Z,80.41
2023-03-05T16:45:21.195Z,80.72
2023-03-05T16:47:23.806Z,81.26
2023-03-05T16:49:26.472Z,81.32
2023-03-05T16:51:30.962Z,81.06
2023-03-05T16:53:34.825Z,81.29
2023-03-05T16:55:39.124Z,81.14
2023-03-05T16:57:43.014Z,81.04
2023-03-05T16:59:46.505Z,81.02
2023-03-05T17:01:49.368Z,80.95
2023-03-05T17:03:53.819Z,80.79
2023-03-05T17:05:57.317Z,80.06
2023-03-05T17:08:02.248Z,80.31
2023-03-05T17:10:06.087Z,80.18
2023-03-05T17:12:09.882Z,81.09
2023-03-05T17:14:13.724Z,80.94
2023-03-05T17:16:19.711Z,81.10
2023-03-05T17:18:23.584Z,80.38
2023-03-05T17:20:26.482Z,80.12
2023-03-05T17:22:30.230Z,80.35
2023-03-05T17:24:35.241Z,80.47
2023-03-05T17:26:38.628Z,80.97
2023-03-05T17:28:53.571Z,80.47
2023-03-05T17:31:01.355Z,80.64
2023-03-05T17:33:04.800Z,80.42
2023-03-05T17:35:08.910Z,80.01
2023-03-05T17:37:15.262Z,80.81
2023-03-05T17:39:23.241Z,80.25
2023-03-05T17:41:27.556Z,80.87
2023-03-05T17:43:30.436Z,81.48
2023-03-05T17:45:35.326Z,81.00
2023-03-05T17:47:38.179Z,81.49
2023-03-05T17:49:40.946Z,81.66
2023-03-05T17:51:43.742Z,81.82
2023-03-05T17:53:46.393Z,81.59
2023-03-05T17:55:49.038Z,82.85
2023-03-05T17:57:53.281Z,83.28
2023-03-05T17:59:55.977Z,83.38
2023-03-05T18:01:58.612Z,84.03
2023-03-05T18:04:02.226Z,83.95
2023-03-05T18:06:05.367Z,83.96
2023-03-05T18:08:08.224Z,83.66
2023-03-05T18:10:12.928Z,84.35
2023-03-05T18:12:15.681Z,84.71
2023-03-05T18:14:19.748Z,84.95
2023-03-05T18:16:23.443Z,85.40
2023-03-05T18:18:26.130Z,85.20
2023-03-05T18:20:31.460Z,86.12
2023-03-05T18:22:34.253Z,85.68
2023-03-05T18:24:36.981Z,86.41
2023-03-05T18:26:39.734Z,86.65
2023-03-05T18:28:42.405Z,86.61
2023-03-05T18:30:47.400Z,87.36
2023-03-05T18:32:51.307Z,87.94
2023-03-05T18:34:54.020Z,87.84
2023-03-05T18:36:56.812Z,88.54
2023-03-05T18:38:59.497Z,88.90
2023-03-05T18:41:04.186Z,89.75
2023-03-05T18:43:06.832Z,89.89
2023-03-05T18:45:10.730Z,90.22
2023-03-05T18:47:14.782Z,90.26
2023-03-05T18:49:17.467Z,89.71
2023-03-05T18:51:22.223Z,90.18
2023-03-05T18:53:24.991Z,90.03
2023-03-05T18:55:30.200Z,90.14
2023-03-05T18:57:32.924Z,91.14
2023-03-05T18:59:35.593Z,91.83
2023-03-05T19:01:38.347Z,91.62
2023-03-05T19:03:42.448Z,91.54
2023-03-05T19:05:45.135Z,90.85
2023-03-05T19:07:48.452Z,91.02
2023-03-05T19:09:58.130Z,91.38
2023-03-05T19:12:02.000Z,92.21
2023-03-05T19:14:04.688Z,92.16
2023-03-05T19:16:09.424Z,92.99
2023-03-05T19:18:13.184Z,93.17
2023-03-05T19:20:18.464Z,92.72
2023-03-05T19:22:21.375Z,92.67
2023-03-05T19:24:25.936Z,93.34
2023-03-05T19:26:28.646Z,92.93
2023-03-05T19:28:31.286Z,92.80
2023-03-05T19:30:33.938Z,93.43
2023-03-05T19:32:36.759Z,94.19
2023-03-05T19:34:39.659Z,93.95
2023-03-05T19:36:43.768Z,94.23
2023-03-05T19:38:47.937Z,94.38
2023-03-05T19:40:54.168Z,94.25
2023-03-05T19:42:57.854Z,95.16
2023-03-05T19:45:00.492Z,95.41
2023-03-05T19:47:03.221Z,95.52
2023-03-05T19:49:05.941Z,95.60
2023-03-05T19:51:13.296Z,95.65
2023-03-05T19:53:17.348Z,96.36
2023-03-05T19:55:20.256Z,96.30
2023-03-05T19:57:22.990Z,96.29
2023-03-05T19:59:25.964Z,96.10
2023-03-05T20:01:29.298Z,95.82
2023-03-05T20:03:32.325Z,95.27
2023-03-05T20:05:35.412Z,95.93
2023-03-05T20:07:38.127Z,95.84
2023-03-05T20:09:42.176Z,95.29
2023-03-05T20:11:46.049Z,95.00
2023-03-05T20:13:49.134Z,94.97
2023-03-05T20:15:54.493Z,94.90
2023-03-05T20:17:58.006Z,95.32
2023-03-05T20:20:00.972Z,96.22
2023-03-05T20:22:03.675Z,96.62
2023-03-05T20:24:09.899Z,96.58
2023-03-05T20:26:14.243Z,96.55
2023-03-05T20:28:17.068Z,97.51
2023-03-05T20:30:20.269Z,97.61
2023-03-05T20:32:23.083Z,97.45
2023-03-05T20:34:27.056Z,97.17
2023-03-05T20:36:29.782Z,96.80
2023-03-05T20:38:33.072Z,96.53
2023-03-05T20:40:35.758Z,97.02
2023-03-05T20:42:40.173Z,96.44
2023-03-05T20:44:43.148Z,96.70
2023-03-05T20:46:52.524Z,95.80
2023-03-05T20:48:59.075Z,94.53
2023-03-05T20:51:12.031Z,92.60
2023-03-05T20:53:14.954Z,92.35
2023-03-05T20:55:17.582Z,92.51
2023-03-05T20:57:20.243Z,92.23
2023-03-05T20:59:24.771Z,93.07
2023-03-05T21:01:28.919Z,93.52
2023-03-05T21:03:31.609Z,94.21
2023-03-05T21:05:36.082Z,93.40
2023-03-05T21:07:38.798Z,93.77
2023-03-05T21:09:41.464Z,93.14
2023-03-05T21:11:44.117Z,92.28
2023-03-05T21:13:47.062Z,91.83
2023-03-05T21:15:51.116Z,91.72
2023-03-05T21:17:54.316Z,91.33
2023-03-05T21:19:57.008Z,92.83
2023-03-05T21:22:00.034Z,95.31
2023-03-05T21:24:02.715Z,96.08
2023-03-05T21:26:05.571Z,96.33
2023-03-05T21:28:09.797Z,96.25
2023-03-05T21:30:13.393Z,96.13
2023-03-05T21:32:17.578Z,96.34
2023-03-05T21:34:20.368Z,96.23
2023-03-05T21:36:23.093Z,96.85
2023-03-05T21:38:29.791Z,96.97
2023-03-05T21:40:33.171Z,96.41
2023-03-05T21:42:35.771Z,96.63
2023-03-05T21:44:38.697Z,95.88
2023-03-05T21:46:42.713Z,95.60
2023-03-05T21:48:46.741Z,95.95
2023-03-05T21:50:49.924Z,95.61
2023-03-05T21:52:52.963Z,95.39
2023-03-05T21:54:55.746Z,95.05
2023-03-05T21:56:58.384Z,95.38
2023-03-05T21:59:03.066Z,95.92
2023-03-05T22:01:06.137Z,95.69
2023-03-05T22:03:08.888Z,95.07
2023-03-05T22:05:15.532Z,95.65
2023-03-05T22:07:19.237Z,96.38
2023-03-05T22:09:21.894Z,96.36
2023-03-05T22:11:24.548Z,96.16
2023-03-05T22:13:27.257Z,95.87
2023-03-05T22:15:30.166Z,95.99
2023-03-05T22:17:32.806Z,95.65
2023-03-05T22:19:35.590Z,95.72
2023-03-05T22:21:39.639Z,95.80
2023-03-05T22:23:42.253Z,96.53
2023-03-05T22:25:45.433Z,96.40
2023-03-05T22:27:48.066Z,96.44
2023-03-05T22:29:50.738Z,95.91
2023-03-05T22:31:55.378Z,96.36
2023-03-05T22:33:58.287Z,95.85
2023-03-05T22:36:01.184Z,95.88
2023-03-05T22:38:05.240Z,96.47
2023-03-05T22:40:09.276Z,96.02
2023-03-05T22:42:11.957Z,96.21
2023-03-05T22:44:14.676Z,96.30
2023-03-05T22:46:21.006Z,96.56
2023-03-05T22:48:23.686Z,97.41
2023-03-05T22:50:26.335Z,97.17
2023-03-05T22:52:29.393Z,97.57
2023-03-05T22:54:33.431Z,97.11
2023-03-05T22:56:37.171Z,97.56
2023-03-05T22:58:40.025Z,97.38
2023-03-05T23:00:42.809Z,97.32
2023-03-05T23:02:45.859Z,97.29
2023-03-05T23:04:49.956Z,97.65
2023-03-05T23:06:52.649Z,97.33
2023-03-05T23:08:55.707Z,96.35
2023-03-05T23:10:59.765Z,96.37
2023-03-05T23:13:02.832Z,96.54
2023-03-05T23:15:08.844Z,95.66
2023-03-05T23:17:11.572Z,95.79
2023-03-05T23:19:14.260Z,95.53
2023-03-05T23:21:16.980Z,95.40
2023-03-05T23:23:19.659Z,96.05
2023-03-05T23:25:23.736Z,96.09
2023-03-05T23:27:27.757Z,96.10
2023-03-05T23:29:32.973Z,95.71
2023-03-05T23:31:35.591Z,95.78
2023-03-05T23:33:38.376Z,95.76
2023-03-05T23:35:43.181Z,95.43
2023-03-05T23:37:46.075Z,95.51
2023-03-05T23:39:48.681Z,95.34
2023-03-05T23:41:51.312Z,96.28
2023-03-05T23:43:55.329Z,95.87
2023-03-05T23:45:58.265Z,95.84
2023-03-05T23:48:01.593Z,96.71
2023-03-05T23:50:04.782Z,97.50
2023-03-05T23:52:07.798Z,98.70
2023-03-05T23:54:10.495Z,99.00
2023-03-05T23:56:13.353Z,98.97
2023-03-05T23:58:17.388Z,99.35
